Time,TemperatureF,DewpointF,PressureIn,WindDirection,WindDirectionDegrees,WindSpeedMPH,WindSpeedGustMPH,Humidity,HourlyPrecipIn,Conditions,Clouds,dailyrainin,SoftwareType,DateUTC
2013-09-24 00:03:00,20.5,20.2,29.96,West,270,0.0,0.0,99,0.00,,,0.00,WUHU21623XXSP,2013-09-24 05:03:00,
2013-09-24 00:08:00,20.5,20.2,29.95,West,270,0.0,0.0,99,0.00,,,0.00,WUHU21623XXSP,2013-09-24 05:08:00,
2013-09-24 00:13:00,20.5,20.3,29.95,West,270,0.0,0.0,99,0.00,,,0.00,WUHU21623XXSP,2013-09-24 05:13:00,
2013-09-24 00:18:00,20.5,20.2,29.96,West,270,0.0,0.0,99,0.00,,,0.00,WUHU21623XXSP,2013-09-24 05:18:00,
2013-09-24 00:23:00,20.5,20.2,29.95,West,270,0.0,0.0,99,0.00,,,0.00,WUHU21623XXSP,2013-09-24 05:23:00,
2013-09-24 00:28:00,20.5,20.3,29.95,West,270,0.0,0.0,99,0.00,,,0.00,WUHU21623XXSP,2013-09-24 05:28:00,
2013-09-24 00:33:00,20.5,20.3,29.95,West,270,0.0,0.0,99,0.00,,,0.00,WUHU21623XXSP,2013-09-24 05:33:00,
2013-09-24 00:38:00,20.5,20.2,29.96,West,270,0.0,0.0,99,0.00,,,0.00,WUHU21623XXSP,2013-09-24 05:38:00,
2013-09-24 00:43:00,20.5,20.3,29.95,West,270,0.0,0.0,99,0.00,,,0.00,WUHU21623XXSP,2013-09-24 05:43:00,
2013-09-24 00:48:00,20.5,20.3,29.95,West,270,0.0,0.0,99,0.00,,,0.00,WUHU21623XXSP,2013-09-24 05:48:00,
2013-09-24 00:53:00,20.5,20.2,29.95,West,270,0.0,0.0,99,0.00,,,0.00,WUHU21623XXSP,2013-09-24 05:53:00,
2013-09-24 00:58:00,20.5,20.3,29.96,West,270,0.0,0.0,99,0.00,,,0.00,WUHU21623XXSP,2013-09-24 05:58:00,
2013-09-24 01:03:00,20.5,20.3,29.95,West,270,0.0,0.0,99,0.00,,,0.00,WUHU21623XXSP,2013-09-24 06:03:00,
2013-09-24 01:08:00,20.5,20.3,29.95,West,270,0.0,0.0,99,0.00,,,0.00,WUHU21623XXSP,2013-09-24 06:08:00,
2013-09-24 01:13:00,20.5,20.3,29.95,West,270,0.0,0.0,99,0.00,,,0.00,WUHU21623XXSP,2013-09-24 06:13:00,
2013-09-24 01:18:00,20.5,20.3,29.95,West,270,0.0,0.0,99,0.00,,,0.00,WUHU21623XXSP,2013-09-24 06:18:00,
2013-09-24 02:13:00,94.3,93.9,29.95,West,270,0.0,0.0,99,0.00,,,0.00,WUHU21623XXSP,2013-09-24 07:13:00,
2013-09-24 02:18:00,94.3,93.9,29.95,West,270,0.0,0.0,99,0.00,,,0.00,WUHU21623XXSP,2013-09-24 07:18:00,
2013-09-24 02:23:00,94.3,93.9,29.95,West,270,0.0,0.0,99,0.00,,,0.00,WUHU21623XXSP,2013-09-24 07:23:00,
2013-09-24 02:28:00,94.3,93.9,29.95,West,270,0.0,0.0,99,0.00,,,0.00,WUHU21623XXSP,2013-09-24 07:28:00,
2013-09-24 02:33:00,94.3,93.9,29.95,West,270,0.0,0.0,99,0.00,,,0.00,WUHU21623XXSP,2013-09-24 07:33:00,
2013-09-24 02:38:00,94.3,93.9,29.95,West,270,0.0,0.0,99,0.00,,,0.00,WUHU21623XXSP,2013-09-24 07:38:00,
2013-09-24 02:43:00,94.3,93.9,29.95,West,270,0.0,0.0,99,0.00,,,0.00,WUHU21623XXSP,2013-09-24 07:43:00,
2013-09-24 02:48:00,94.3,93.9,29.95,West,270,0.0,0.0,99,0.00,,,0.00,WUHU21623XXSP,2013-09-24 07:48:00,
2013-09-24 02:53:00,94.3,93.9,29.95,West,270,0.0,0.0,99,0.00,,,0.00,WUHU21623XXSP,2013-09-24 07:53:00,
2013-09-24 02:58:00,94.3,94.0,29.95,West,270,0.0,0.0,99,0.00,,,0.00,WUHU21623XXSP,2013-09-24 07:58:00,
2013-09-24 03:03:00,94.3,94.0,29.95,West,270,0.0,0.0,99,0.00,,,0.00,WUHU21623XXSP,2013-09-24 08:03:00,
2013-09-24 03:08:00,94.3,94.0,29.95,West,270,0.0,0.0,99,0.00,,,0.00,WUHU21623XXSP,2013-09-24 08:08:00,
2013-09-24 03:19:00,20.5,20.2,29.95,West,270,0.0,0.0,99,0.00,,,0.00,WUHU21623XXSP,2013-09-24 08:19:00,
2013-09-24 03:24:00,20.5,20.3,29.95,West,270,0.0,0.0,99,0.00,,,0.00,WUHU21623XXSP,2013-09-24 08:24:00,
2013-09-24 03:29:00,20.5,20.3,29.94,West,270,0.0,0.0,99,0.00,,,0.00,WUHU21623XXSP,2013-09-24 08:29:00,
2013-09-24 03:34:00,20.5,20.3,29.94,West,270,0.0,0.0,99,0.00,,,0.00,WUHU21623XXSP,2013-09-24 08:34:00,
2013-09-24 03:39:00,20.5,20.3,29.94,West,270,0.0,0.0,99,0.00,,,0.00,WUHU21623XXSP,2013-09-24 08:39:00,
2013-09-24 03:44:00,20.5,20.2,29.95,West,270,0.0,0.0,99,0.00,,,0.00,WUHU21623XXSP,2013-09-24 08:44:00,
2013-09-24 03:49:00,20.5,20.2,29.94,West,270,0.0,0.0,99,0.00,,,0.00,WUHU21623XXSP,2013-09-24 08:49:00,
2013-09-24 03:54:00,20.5,20.2,29.94,West,270,0.0,0.0,99,0.00,,,0.00,WUHU21623XXSP,2013-09-24 08:54:00,
2013-09-24 03:59:00,20.5,20.2,29.94,West,270,0.0,0.0,99,0.00,,,0.00,WUHU21623XXSP,2013-09-24 08:59:00,
2013-09-24 04:17:00,-16.4,-47.0,29.94,West,270,0.0,0.0,18,0.00,,,0.00,WUHU21623XXSP,2013-09-24 09:17:00,
2013-09-24 04:22:00,-16.4,-47.0,29.93,West,270,0.0,0.0,18,0.00,,,0.00,WUHU21623XXSP,2013-09-24 09:22:00,
2013-09-24 04:27:00,-16.4,-47.0,29.93,West,270,0.0,0.0,18,0.00,,,0.00,WUHU21623XXSP,2013-09-24 09:27:00,
2013-09-24 04:32:00,-16.4,-47.0,29.93,West,270,0.0,0.0,18,0.00,,,0.00,WUHU21623XXSP,2013-09-24 09:32:00,
2013-09-24 04:37:00,-16.4,-47.0,29.93,West,270,0.0,0.0,18,0.00,,,0.00,WUHU21623XXSP,2013-09-24 09:37:00,
2013-09-24 04:42:00,-16.4,-47.0,29.93,West,270,0.0,0.0,18,0.00,,,0.00,WUHU21623XXSP,2013-09-24 09:42:00,
2013-09-24 04:47:00,94.3,44.3,29.93,West,270,0.0,0.0,18,0.00,,,0.00,WUHU21623XXSP,2013-09-24 09:47:00,
2013-09-24 04:52:00,94.3,93.9,29.93,West,270,0.0,0.0,99,0.00,,,0.00,WUHU21623XXSP,2013-09-24 09:52:00,
2013-09-24 04:57:00,94.3,93.9,29.93,West,270,0.0,0.0,99,0.00,,,0.00,WUHU21623XXSP,2013-09-24 09:57:00,
2013-09-24 05:03:00,94.3,93.9,29.93,West,270,0.0,0.0,99,0.00,,,0.00,WUHU21623XXSP,2013-09-24 10:03:00,
2013-09-24 05:08:00,94.3,93.9,29.93,West,270,0.0,0.0,99,0.00,,,0.00,WUHU21623XXSP,2013-09-24 10:08:00,
2013-09-24 05:13:00,94.3,93.9,29.93,West,270,0.0,0.0,99,0.00,,,0.00,WUHU21623XXSP,2013-09-24 10:13:00,
2013-09-24 05:18:00,94.3,93.9,29.94,West,270,0.0,0.0,99,0.00,,,0.00,WUHU21623XXSP,2013-09-24 10:18:00,
2013-09-24 05:23:00,94.3,93.9,29.93,West,270,0.0,0.0,99,0.00,,,0.00,WUHU21623XXSP,2013-09-24 10:23:00,
2013-09-24 05:28:00,94.3,93.9,29.93,West,270,0.0,0.0,99,0.00,,,0.00,WUHU21623XXSP,2013-09-24 10:28:00,
2013-09-24 05:33:00,94.3,93.9,29.93,West,270,0.0,0.0,99,0.00,,,0.00,WUHU21623XXSP,2013-09-24 10:33:00,
2013-09-24 05:38:00,94.3,93.9,29.93,West,270,0.0,0.0,99,0.00,,,0.00,WUHU21623XXSP,2013-09-24 10:38:00,
2013-09-24 05:43:00,94.3,93.9,29.93,West,270,0.0,0.0,99,0.00,,,0.00,WUHU21623XXSP,2013-09-24 10:43:00,
2013-09-24 05:49:00,94.3,94.0,29.93,West,270,0.0,0.0,99,0.00,,,0.00,WUHU21623XXSP,2013-09-24 10:49:00,
2013-09-24 06:09:00,94.3,93.9,29.93,West,270,0.0,0.0,99,0.00,,,0.00,WUHU21623XXSP,2013-09-24 11:09:00,
2013-09-24 06:14:00,94.3,93.9,29.93,West,270,0.0,0.0,99,0.00,,,0.00,WUHU21623XXSP,2013-09-24 11:14:00,
2013-09-24 06:19:00,94.3,94.0,29.93,West,270,0.0,0.0,99,0.00,,,0.00,WUHU21623XXSP,2013-09-24 11:19:00,
2013-09-24 06:24:00,94.3,93.9,29.93,West,270,0.0,0.0,99,0.00,,,0.00,WUHU21623XXSP,2013-09-24 11:24:00,
2013-09-24 06:29:00,94.3,93.9,29.93,West,270,0.0,0.0,99,0.00,,,0.00,WUHU21623XXSP,2013-09-24 11:29:00,
2013-09-24 06:34:00,94.3,94.0,29.93,West,270,0.0,0.0,99,0.00,,,0.00,WUHU21623XXSP,2013-09-24 11:34:00,
2013-09-24 06:39:00,94.3,94.0,29.93,West,270,0.0,0.0,99,0.00,,,0.00,WUHU21623XXSP,2013-09-24 11:39:00,
2013-09-24 06:49:00,20.5,20.2,29.93,West,270,0.0,0.0,99,0.00,,,0.00,WUHU21623XXSP,2013-09-24 11:49:00,
2013-09-24 06:54:00,20.5,20.3,29.93,West,270,0.0,0.0,99,0.00,,,0.00,WUHU21623XXSP,2013-09-24 11:54:00,
2013-09-24 06:59:00,20.5,20.3,29.93,West,270,0.0,0.0,99,0.00,,,0.00,WUHU21623XXSP,2013-09-24 11:59:00,
2013-09-24 07:04:00,20.5,20.3,29.93,West,270,0.0,0.0,99,0.00,,,0.00,WUHU21623XXSP,2013-09-24 12:04:00,
2013-09-24 07:24:00,94.3,93.9,29.93,West,270,0.0,0.0,99,0.00,,,0.00,WUHU21623XXSP,2013-09-24 12:24:00,
2013-09-24 07:29:00,94.3,93.9,29.93,West,270,0.0,0.0,99,0.00,,,0.00,WUHU21623XXSP,2013-09-24 12:29:00,
2013-09-24 07:34:00,94.3,93.9,29.93,West,270,0.0,0.0,99,0.00,,,0.00,WUHU21623XXSP,2013-09-24 12:34:00,
2013-09-24 07:39:00,94.3,93.9,29.93,West,270,0.0,0.0,99,0.00,,,0.00,WUHU21623XXSP,2013-09-24 12:39:00,
2013-09-24 07:44:00,94.3,93.9,29.93,West,270,0.0,0.0,99,0.00,,,0.00,WUHU21623XXSP,2013-09-24 12:44:00,
2013-09-24 13:41:00,93.4,85.1,29.92,North,0,0.0,15.9,77,0.00,,,0.00,WUHU21623XXSP,2013-09-24 18:41:00,
2013-09-24 13:46:00,93.0,87.1,29.92,South,180,0.0,15.9,82,0.00,,,0.00,WUHU21623XXSP,2013-09-24 18:46:00,
2013-09-24 13:51:00,93.0,87.1,29.92,South,180,0.0,0.0,82,0.00,,,0.00,WUHU21623XXSP,2013-09-24 18:51:00,
2013-09-24 13:56:00,93.2,88.1,29.91,WSW,247,0.0,0.0,85,0.00,,,0.00,WUHU21623XXSP,2013-09-24 18:56:00,
2013-09-24 14:01:00,93.2,88.1,29.91,WSW,247,0.0,0.0,85,0.00,,,0.00,WUHU21623XXSP,2013-09-24 19:01:00,
2013-09-24 14:33:00,93.7,88.6,29.91,North,0,0.0,17.2,85,0.00,,,0.00,WUHU21623XXSP,2013-09-24 19:33:00,
2013-09-24 14:38:00,93.7,88.6,29.91,WSW,247,12.8,17.2,85,0.00,,,0.00,WUHU21623XXSP,2013-09-24 19:38:00,
2013-09-24 14:43:00,93.7,88.6,29.91,WSW,247,12.8,12.8,85,0.00,,,0.00,WUHU21623XXSP,2013-09-24 19:43:00,
2013-09-24 15:03:00,92.5,87.3,29.91,WSW,247,0.0,0.0,85,0.00,,,0.00,WUHU21623XXSP,2013-09-24 20:03:00,
2013-09-24 15:08:00,93.0,87.5,29.92,West,270,13.0,13.0,84,0.00,,,0.00,WUHU21623XXSP,2013-09-24 20:08:00,
2013-09-24 15:13:00,93.0,87.5,29.92,North,0,15.0,15.0,84,0.00,,,0.00,WUHU21623XXSP,2013-09-24 20:13:00,
2013-09-24 15:18:00,91.8,84.9,29.92,NNW,337,8.7,15.0,82,0.00,,,0.00,WUHU21623XXSP,2013-09-24 20:18:00,
2013-09-24 15:23:00,90.7,84.0,29.91,North,0,0.0,8.7,81,0.00,,,0.00,WUHU21623XXSP,2013-09-24 20:23:00,
2013-09-24 15:28:00,90.9,85.7,29.91,NNW,337,12.3,12.3,85,0.00,,,0.00,WUHU21623XXSP,2013-09-24 20:28:00,
2013-09-24 15:33:00,90.9,85.4,29.91,North,0,6.9,12.3,84,0.00,,,0.00,WUHU21623XXSP,2013-09-24 20:33:00,
2013-09-24 15:38:00,90.7,84.0,29.91,North,0,0.9,6.9,81,0.00,,,0.00,WUHU21623XXSP,2013-09-24 20:38:00,
2013-09-24 15:43:00,90.7,84.0,29.91,North,0,0.9,0.9,81,0.00,,,0.00,WUHU21623XXSP,2013-09-24 20:43:00,
2013-09-24 16:50:00,83.8,79.9,29.91,North,0,0.0,0.0,88,0.00,,,0.00,WUHU21623XXSP,2013-09-24 21:50:00,
2013-09-24 16:55:00,82.6,79.3,29.92,North,0,0.0,0.0,90,0.00,,,0.00,WUHU21623XXSP,2013-09-24 21:55:00,
2013-09-24 17:00:00,82.6,79.3,29.92,North,0,0.0,0.0,90,0.00,,,0.00,WUHU21623XXSP,2013-09-24 22:00:00,
2013-09-24 17:05:00,81.1,77.6,29.91,WSW,247,0.0,0.0,89,0.00,,,0.00,WUHU21623XXSP,2013-09-24 22:05:00,
2013-09-24 17:10:00,81.1,78.2,29.91,WSW,247,0.0,0.0,91,0.00,,,0.00,WUHU21623XXSP,2013-09-24 22:10:00,
2013-09-24 17:15:00,81.1,78.2,29.91,WSW,247,0.0,0.0,91,0.00,,,0.00,WUHU21623XXSP,2013-09-24 22:15:00,
2013-09-24 17:20:00,79.2,76.7,29.92,North,0,0.0,0.0,92,0.00,,,0.00,WUHU21623XXSP,2013-09-24 22:20:00,
2013-09-24 17:25:00,79.2,76.7,29.92,North,0,0.0,0.0,92,0.00,,,0.00,WUHU21623XXSP,2013-09-24 22:25:00,
2013-09-24 17:30:00,77.5,75.1,29.92,NNW,337,0.0,0.0,92,0.00,,,0.00,WUHU21623XXSP,2013-09-24 22:30:00,
2013-09-24 17:35:00,76.8,73.8,29.92,North,0,0.0,0.0,90,0.00,,,0.00,WUHU21623XXSP,2013-09-24 22:35:00,
2013-09-24 17:40:00,75.9,72.2,29.92,North,0,0.0,0.0,88,0.00,,,0.00,WUHU21623XXSP,2013-09-24 22:40:00,
2013-09-24 17:45:00,75.6,73.1,29.92,North,0,0.0,0.0,92,0.00,,,0.00,WUHU21623XXSP,2013-09-24 22:45:00,
2013-09-24 17:50:00,75.4,72.9,29.92,North,0,0.0,0.0,92,0.00,,,0.00,WUHU21623XXSP,2013-09-24 22:50:00,
2013-09-24 17:55:00,75.0,72.4,29.92,North,0,0.0,0.0,92,0.00,,,0.00,WUHU21623XXSP,2013-09-24 22:55:00,
2013-09-24 18:00:00,75.0,72.4,29.92,North,0,0.0,0.0,92,0.00,,,0.00,WUHU21623XXSP,2013-09-24 23:00:00,
2013-09-24 20:38:00,94.3,93.9,29.92,WSW,247,0.0,0.0,99,0.00,,,0.00,WUHU21623XXSP,2013-09-25 01:38:00,
2013-09-24 20:43:00,94.3,93.9,29.92,WSW,247,0.0,0.0,99,0.00,,,0.00,WUHU21623XXSP,2013-09-25 01:43:00,
2013-09-24 20:48:00,94.3,94.0,29.92,WSW,247,0.0,0.0,99,0.00,,,0.00,WUHU21623XXSP,2013-09-25 01:48:00,
2013-09-24 20:53:00,94.3,94.0,29.92,WSW,247,0.0,0.0,99,0.00,,,0.00,WUHU21623XXSP,2013-09-25 01:53:00,
2013-09-24 20:58:00,94.3,94.0,29.92,WSW,247,0.0,0.0,99,0.00,,,0.00,WUHU21623XXSP,2013-09-25 01:58:00,
2013-09-24 22:02:00,94.3,93.9,29.93,WSW,247,0.0,0.0,99,0.00,,,0.00,WUHU21623XXSP,2013-09-25 03:02:00,
2013-09-24 22:07:00,94.3,93.9,29.92,WSW,247,0.0,0.0,99,0.00,,,0.00,WUHU21623XXSP,2013-09-25 03:07:00,
2013-09-24 22:12:00,94.3,93.9,29.92,WSW,247,0.0,0.0,99,0.00,,,0.00,WUHU21623XXSP,2013-09-25 03:12:00,
2013-09-24 22:32:00,94.3,93.9,29.92,WSW,247,0.0,0.0,99,0.00,,,0.00,WUHU21623XXSP,2013-09-25 03:32:00,
2013-09-24 22:49:00,94.3,94.0,29.92,WSW,247,0.0,0.0,99,0.00,,,0.00,WUHU21623XXSP,2013-09-25 03:49:00,
2013-09-24 22:54:00,94.3,94.0,29.92,WSW,247,0.0,0.0,99,0.00,,,0.00,WUHU21623XXSP,2013-09-25 03:54:00,
2013-09-24 22:59:00,94.3,93.9,29.92,WSW,247,0.0,0.0,99,0.00,,,0.00,WUHU21623XXSP,2013-09-25 03:59:00,
2013-09-24 23:04:00,94.3,93.9,29.92,WSW,247,0.0,0.0,99,0.00,,,0.00,WUHU21623XXSP,2013-09-25 04:04:00,
2013-09-24 23:09:00,94.3,93.9,29.92,WSW,247,0.0,0.0,99,0.00,,,0.00,WUHU21623XXSP,2013-09-25 04:09:00,
2013-09-24 23:14:00,94.3,93.9,29.92,WSW,247,0.0,0.0,99,0.00,,,0.00,WUHU21623XXSP,2013-09-25 04:14:00,
2013-09-24 23:25:00,94.3,93.9,29.93,WSW,247,0.0,0.0,99,0.00,,,0.00,WUHU21623XXSP,2013-09-25 04:25:00,
2013-09-24 23:30:00,94.3,93.9,29.92,WSW,247,0.0,0.0,99,0.00,,,0.00,WUHU21623XXSP,2013-09-25 04:30:00,
2013-09-24 23:35:00,94.3,94.0,29.93,WSW,247,0.0,0.0,99,0.00,,,0.00,WUHU21623XXSP,2013-09-25 04:35:00,
2013-09-24 23:40:00,94.3,94.0,29.92,WSW,247,0.0,0.0,99,0.00,,,0.00,WUHU21623XXSP,2013-09-25 04:40:00,
2013-09-24 23:45:00,94.3,94.0,29.93,WSW,247,0.0,0.0,99,0.00,,,0.00,WUHU21623XXSP,2013-09-25 04:45:00,
2013-09-24 23:50:00,94.3,94.0,29.93,WSW,247,0.0,0.0,99,0.00,,,0.00,WUHU21623XXSP,2013-09-25 04:50:00,
2013-09-24 23:55:00,20.5,20.2,29.92,WSW,247,0.0,0.0,99,0.00,,,0.00,WUHU21623XXSP,2013-09-25 04:55:00,